M I D A S
Marine Information and Data Acquisition System
Tripno 2061 of the Zeeleeuw from 2011-03-21 07:44:49 to 2011-03-21 15:48:16
Back to CruiseResearch ActivitiesStationsMapUnderway DataData graphs

EquipmentUnitsComment
TimeDGPSUTC
LatitudeDGPSDM.mWGS84
LongitudeDGPSDM.mWGS84
HeadingGyrodeg 
SOGDGPSknotsSpeed over ground
COGDGPSdegCourse over ground
DepthEcho soundermeters200 kHz
Missing or incorrect values are displayed as -999
Navigation data collected by the RV Zeeleeuw from 2011-03-21 07:44:43 to 2011-03-21 15:49:14
                                                                                    Next 1000 lines
Time Latitude Longitude Heading SOG COG Depth
2011-03-21 07:44:53 51°13.661 2°55.956 115.4 0.9 296 -999
2011-03-21 07:44:58 51°13.662 2°55.953 115.4 1.3 296 6
2011-03-21 07:45:03 51°13.664 2°55.95 115.2 1.6 297 6.1
2011-03-21 07:45:07 51°13.664 2°55.947 115.2 1.9 297 6.1
2011-03-21 07:45:13 51°13.666 2°55.942 114.9 2.2 296 -999
2011-03-21 07:45:17 51°13.667 2°55.938 114 2.4 295 -999
2011-03-21 07:45:23 51°13.668 2°55.931 113.2 2.6 293 -999
2011-03-21 07:45:28 51°13.67 2°55.926 112.4 2.9 292 -999
2011-03-21 07:45:33 51°13.672 2°55.919 111.5 3.1 291 -999
2011-03-21 07:45:38 51°13.674 2°55.912 110.6 3.2 291 -999
2011-03-21 07:45:43 51°13.675 2°55.905 109.7 3.5 289 -999
2011-03-21 07:45:49 51°13.677 2°55.896 108.7 3.6 288 -999
2011-03-21 07:45:53 51°13.679 2°55.89 107.6 3.7 288 -999
2011-03-21 07:45:58 51°13.68 2°55.882 106.8 3.7 287 -999
2011-03-21 07:46:03 51°13.682 2°55.873 106 3.9 287 -999
2011-03-21 07:46:09 51°13.683 2°55.863 105 4 285 -999
2011-03-21 07:46:14 51°13.685 2°55.854 104 4.1 285 -999
2011-03-21 07:46:18 51°13.686 2°55.847 103 4.1 284 -999
2011-03-21 07:46:23 51°13.687 2°55.839 102.1 4 283 -999
2011-03-21 07:46:28 51°13.689 2°55.83 100.8 3.9 282 -999
2011-03-21 07:46:34 51°13.69 2°55.82 99.3 3.9 281 -999
2011-03-21 07:46:38 51°13.691 2°55.813 98 3.8 280 -999
2011-03-21 07:46:43 51°13.691 2°55.805 96.9 3.7 279 -999
2011-03-21 07:46:48 51°13.692 2°55.797 95.7 3.7 278 -999
2011-03-21 07:46:53 51°13.693 2°55.789 94.1 3.5 277 -999
2011-03-21 07:46:58 51°13.693 2°55.782 92.8 3.4 277 -999
2011-03-21 07:47:03 51°13.694 2°55.776 91.7 2.7 277 -999
2011-03-21 07:47:08 51°13.694 2°55.772 90.1 1.8 278 -999
2011-03-21 07:47:13 51°13.695 2°55.771 86.3 0.8 296 -999
2011-03-21 07:47:18 51°13.695 2°55.771 81 0.5 351 -999
2011-03-21 07:47:23 51°13.696 2°55.773 75.6 1.1 42 -999
2011-03-21 07:47:28 51°13.698 2°55.775 66.6 1.6 51 -999
2011-03-21 07:47:33 51°13.699 2°55.778 58.2 1.5 38 -999
2011-03-21 07:47:38 51°13.701 2°55.779 52 1.3 40 -999
2011-03-21 07:47:43 51°13.702 2°55.78 49 0.7 32 -999
2011-03-21 07:47:48 51°13.702 2°55.78 45.4 0.3 7 4.9
2011-03-21 07:47:53 51°13.702 2°55.78 41.9 0.4 241 -999
2011-03-21 07:47:58 51°13.701 2°55.778 39.6 0.8 229 -999
2011-03-21 07:48:03 51°13.699 2°55.776 37.2 1.5 220 -999
2011-03-21 07:48:08 51°13.698 2°55.774 34.8 1.7 220 -999
2011-03-21 07:48:13 51°13.696 2°55.772 32.7 1.6 216 -999
2011-03-21 07:48:18 51°13.694 2°55.77 31.8 1.3 223 -999
2011-03-21 07:48:23 51°13.694 2°55.77 30.4 0.2 240 -999
2011-03-21 07:48:28 51°13.695 2°55.77 27.1 0.9 357 -999
2011-03-21 07:48:34 51°13.699 2°55.77 20.8 1.8 7 -999
2011-03-21 07:48:38 51°13.702 2°55.77 12.5 2.4 359 -999
2011-03-21 07:48:43 51°13.706 2°55.769 3 3.3 350 -999
2011-03-21 07:48:48 51°13.711 2°55.766 353 3.5 344 -999
2011-03-21 07:48:54 51°13.716 2°55.762 344.9 3.4 333 -999
2011-03-21 07:48:58 51°13.719 2°55.759 336.4 3.3 332 10
2011-03-21 07:49:03 51°13.723 2°55.755 330.7 3.2 326 10.2
2011-03-21 07:49:07 51°13.726 2°55.752 327.8 3.1 326 9.5
2011-03-21 07:49:12 51°13.729 2°55.748 325.9 3.1 323 9.4
2011-03-21 07:49:18 51°13.734 2°55.742 324.3 3.4 323 -999
2011-03-21 07:49:22 51°13.737 2°55.738 323 3.7 320 8.9
2011-03-21 07:49:28 51°13.742 2°55.731 322.1 4.1 320 -999
2011-03-21 07:49:33 51°13.747 2°55.725 321.6 4.5 320 9
2011-03-21 07:49:38 51°13.752 2°55.718 321.6 4.8 320 8.8
2011-03-21 07:49:42 51°13.756 2°55.712 321.8 5.1 320 8.9
2011-03-21 07:49:47 51°13.762 2°55.704 322.1 5.3 321 -999
2011-03-21 07:49:52 51°13.768 2°55.697 322.8 5.5 322 9.1
2011-03-21 07:49:57 51°13.775 2°55.689 323.9 5.7 324 9.6
2011-03-21 07:50:02 51°13.782 2°55.682 325.6 5.9 325 -999
2011-03-21 07:50:08 51°13.79 2°55.674 327.1 6.1 327 -999
2011-03-21 07:50:13 51°13.797 2°55.666 328.7 6.2 328 -999
2011-03-21 07:50:18 51°13.805 2°55.659 330.7 6.3 330 -999
2011-03-21 07:50:23 51°13.813 2°55.653 332.3 6.5 331 9.6
2011-03-21 07:50:28 51°13.821 2°55.646 333.6 6.5 333 9.3
2011-03-21 07:50:33 51°13.829 2°55.639 334.5 6.6 333 9.2
2011-03-21 07:50:38 51°13.838 2°55.633 335.1 6.7 334 -999
2011-03-21 07:50:43 51°13.846 2°55.626 335.9 6.8 334 9.2
2011-03-21 07:50:48 51°13.854 2°55.62 336.1 6.8 334 -999
2011-03-21 07:50:53 51°13.863 2°55.613 336.1 6.9 334 -999
2011-03-21 07:50:58 51°13.872 2°55.607 336.3 6.9 334 -999
2011-03-21 07:51:03 51°13.881 2°55.601 336.6 7 334 -999
2011-03-21 07:51:08 51°13.889 2°55.594 336.9 7 335 -999
2011-03-21 07:51:13 51°13.898 2°55.587 337.2 7 335 -999
2011-03-21 07:51:18 51°13.907 2°55.581 337.4 7 335 -999
2011-03-21 07:51:23 51°13.916 2°55.575 337.9 7.1 336 9.1
2011-03-21 07:51:28 51°13.925 2°55.568 338 7.1 335 9.3
2011-03-21 07:51:33 51°13.934 2°55.561 337.8 7.1 335 -999
2011-03-21 07:51:38 51°13.943 2°55.555 337.7 7.1 335 -999
2011-03-21 07:51:43 51°13.952 2°55.548 338.4 7.1 337 -999
2011-03-21 07:51:48 51°13.961 2°55.542 338.8 7.2 336 -999
2011-03-21 07:51:53 51°13.97 2°55.536 338.8 7.2 337 -999
2011-03-21 07:51:58 51°13.979 2°55.529 338.7 7.2 337 -999
2011-03-21 07:52:03 51°13.989 2°55.523 338.7 7.2 337 -999
2011-03-21 07:52:08 51°13.998 2°55.517 338.7 7.2 336 -999
2011-03-21 07:52:13 51°14.007 2°55.51 338.4 7.2 337 -999
2011-03-21 07:52:18 51°14.016 2°55.503 338.1 7.2 336 -999
2011-03-21 07:52:23 51°14.025 2°55.497 337.7 7.2 336 -999
2011-03-21 07:52:28 51°14.034 2°55.49 337.6 7.2 336 -999
2011-03-21 07:52:33 51°14.043 2°55.483 337.6 7.2 336 8.9
2011-03-21 07:52:38 51°14.052 2°55.477 337.8 7.2 337 -999
2011-03-21 07:52:43 51°14.061 2°55.47 338.2 7.2 335 -999
2011-03-21 07:52:49 51°14.072 2°55.462 338.1 7.2 336 -999
2011-03-21 07:52:53 51°14.079 2°55.456 337.2 7.2 334 -999
2011-03-21 07:52:58 51°14.088 2°55.449 336.5 7.2 334 -999
2011-03-21 07:53:03 51°14.097 2°55.442 336.1 7.2 333 -999
2011-03-21 07:53:08 51°14.106 2°55.435 335.6 7.2 333 -999
2011-03-21 07:53:14 51°14.117 2°55.426 335.3 7.2 332 -999
2011-03-21 07:53:18 51°14.124 2°55.421 334.7 7.2 333 -999
2011-03-21 07:53:23 51°14.133 2°55.414 334.7 7.2 332 -999
2011-03-21 07:53:28 51°14.142 2°55.407 334.6 7.2 332 -999
2011-03-21 07:53:33 51°14.151 2°55.399 334.4 7.2 332 -999
2011-03-21 07:53:38 51°14.16 2°55.392 333.9 7.2 331 -999
2011-03-21 07:53:43 51°14.168 2°55.384 333.6 7.2 331 -999
2011-03-21 07:53:48 51°14.177 2°55.376 333.6 7.2 331 -999
2011-03-21 07:53:53 51°14.186 2°55.369 333.6 7.2 331 -999
2011-03-21 07:53:58 51°14.195 2°55.361 333.7 7.2 331 -999
2011-03-21 07:54:03 51°14.203 2°55.353 333.6 7.2 331 -999
2011-03-21 07:54:08 51°14.212 2°55.345 333.2 7.2 331 -999
2011-03-21 07:54:13 51°14.22 2°55.337 332.9 7.2 330 -999
2011-03-21 07:54:18 51°14.229 2°55.329 332.2 7.2 329 -999
2011-03-21 07:54:23 51°14.237 2°55.32 331.7 7.2 329 -999
2011-03-21 07:54:29 51°14.247 2°55.31 331.2 7.2 328 -999
2011-03-21 07:54:33 51°14.254 2°55.304 330.8 7.2 328 -999
2011-03-21 07:54:38 51°14.263 2°55.295 330 7.2 327 -999
2011-03-21 07:54:43 51°14.271 2°55.287 329.5 7.2 328 -999
2011-03-21 07:54:48 51°14.28 2°55.278 329.5 7.2 327 -999
2011-03-21 07:54:53 51°14.288 2°55.27 329.5 7.2 328 -999
2011-03-21 07:54:58 51°14.297 2°55.261 329.5 7.2 327 -999
2011-03-21 07:55:03 51°14.305 2°55.253 329.5 7.2 328 -999
2011-03-21 07:55:08 51°14.314 2°55.244 329.7 7.2 327 -999
2011-03-21 07:55:13 51°14.322 2°55.235 329.9 7.5 328 -999
2011-03-21 07:55:18 51°14.332 2°55.225 330.2 7.9 327 -999
2011-03-21 07:55:23 51°14.341 2°55.215 329.8 8.4 328 -999
2011-03-21 07:55:28 51°14.351 2°55.204 329.8 8.6 327 8.4
2011-03-21 07:55:33 51°14.362 2°55.194 329.8 9 328 8.4
2011-03-21 07:55:38 51°14.373 2°55.183 330.3 9.2 328 -999
2011-03-21 07:55:43 51°14.384 2°55.172 330.7 9.5 328 -999
2011-03-21 07:55:48 51°14.395 2°55.16 331 9.6 328 8.5
2011-03-21 07:55:53 51°14.406 2°55.149 331 9.8 328 8.5
2011-03-21 07:55:58 51°14.418 2°55.137 330.6 9.9 327 8.8
2011-03-21 07:56:03 51°14.43 2°55.125 329.7 10 327 8.6
2011-03-21 07:56:08 51°14.442 2°55.113 329.1 10.1 327 8.7
2011-03-21 07:56:13 51°14.454 2°55.101 329 10.2 326 9.1
2011-03-21 07:56:18 51°14.466 2°55.088 328.6 10.3 326 -999
2011-03-21 07:56:23 51°14.478 2°55.076 329 10.4 327 -999
2011-03-21 07:56:28 51°14.49 2°55.063 329.3 10.5 326 9
2011-03-21 07:56:33 51°14.502 2°55.05 328.9 10.5 327 9.1
2011-03-21 07:56:38 51°14.515 2°55.037 329.2 10.5 327 9
2011-03-21 07:56:42 51°14.524 2°55.027 329.8 10.6 325 9.5
2011-03-21 07:56:47 51°14.536 2°55.013 329.9 10.6 324 9.9
2011-03-21 07:56:52 51°14.548 2°54.998 329.2 10.7 321 9.8
2011-03-21 07:56:57 51°14.559 2°54.982 328.6 10.8 319 10.2
2011-03-21 07:57:02 51°14.57 2°54.965 327.4 10.9 317 9.8
2011-03-21 07:57:06 51°14.579 2°54.952 326.1 10.9 317 9.9
2011-03-21 07:57:11 51°14.59 2°54.937 327.2 10.8 320 9.7
2011-03-21 07:57:16 51°14.601 2°54.921 329 10.8 320 9.7
2011-03-21 07:57:21 51°14.613 2°54.906 330.5 10.8 321 9.7
2011-03-21 07:57:26 51°14.625 2°54.891 331.1 10.8 322 9.7
2011-03-21 07:57:30 51°14.634 2°54.88 332 10.8 323 9.7
2011-03-21 07:57:35 51°14.646 2°54.866 332.6 10.8 324 9.6
2011-03-21 07:57:40 51°14.658 2°54.851 332.8 10.8 323 9.6
2011-03-21 07:57:45 51°14.67 2°54.837 332.8 10.8 323 9.7
2011-03-21 07:57:50 51°14.682 2°54.822 331.9 10.8 322 9.7
2011-03-21 07:57:55 51°14.694 2°54.808 331.4 10.8 322 9.7
2011-03-21 07:58:00 51°14.706 2°54.792 330.9 11.1 321 9.5
2011-03-21 07:58:05 51°14.718 2°54.777 330.7 11.3 322 9.7
2011-03-21 07:58:10 51°14.731 2°54.762 331.2 11.5 323 9.7
2011-03-21 07:58:15 51°14.744 2°54.747 331.8 11.6 324 9.2
2011-03-21 07:58:20 51°14.757 2°54.732 332 11.8 325 9.7
2011-03-21 07:58:25 51°14.771 2°54.717 332.9 11.9 326 9.5
2011-03-21 07:58:30 51°14.785 2°54.703 334.1 12 327 9.4
2011-03-21 07:58:34 51°14.796 2°54.692 334.5 12.1 328 9.6
2011-03-21 07:58:40 51°14.814 2°54.675 334.7 12.1 329 10
2011-03-21 07:58:45 51°14.828 2°54.661 335.6 12.2 330 9.7
2011-03-21 07:58:50 51°14.843 2°54.648 336.1 12.3 329 9.7
2011-03-21 07:58:54 51°14.855 2°54.637 337 12.3 331 9.6
2011-03-21 07:59:00 51°14.873 2°54.621 337.3 12.3 330 9.6
2011-03-21 07:59:05 51°14.887 2°54.607 336.9 12.4 330 9.6
2011-03-21 07:59:10 51°14.902 2°54.593 336.9 12.4 330 9.6
2011-03-21 07:59:15 51°14.917 2°54.578 336.1 12.4 328 9.7
2011-03-21 07:59:20 51°14.931 2°54.564 335.4 12.4 328 9.4
2011-03-21 07:59:25 51°14.946 2°54.549 334.7 12.3 328 9.1
2011-03-21 07:59:30 51°14.96 2°54.534 334.2 12.2 327 9.1
2011-03-21 07:59:34 51°14.971 2°54.523 334.1 12.2 328 9.1
2011-03-21 07:59:40 51°14.988 2°54.506 334.2 12.2 328 9.2
2011-03-21 07:59:45 51°15.003 2°54.491 334 12.3 327 9.1
2011-03-21 07:59:50 51°15.017 2°54.475 333.1 12.3 326 9.3
2011-03-21 07:59:54 51°15.028 2°54.462 331.8 12.4 324 9.1
2011-03-21 08:00:00 51°15.044 2°54.443 330.3 12.4 322 8.9
2011-03-21 08:00:05 51°15.057 2°54.425 328.2 12.4 320 9.2
2011-03-21 08:00:10 51°15.07 2°54.407 326.1 12.4 318 9.3
2011-03-21 08:00:15 51°15.083 2°54.388 324.5 12.4 318 9.2
2011-03-21 08:00:20 51°15.095 2°54.369 323.4 12.4 317 9.5
2011-03-21 08:00:25 51°15.108 2°54.35 322.7 12.5 316 9.4
2011-03-21 08:00:30 51°15.12 2°54.331 322.1 12.5 316 9.6
2011-03-21 08:00:35 51°15.133 2°54.313 322.3 12.5 317 9.7
2011-03-21 08:00:40 51°15.146 2°54.294 323.7 12.5 318 9.8
2011-03-21 08:00:45 51°15.16 2°54.277 324.8 12.5 320 9.6
2011-03-21 08:00:50 51°15.173 2°54.259 326.4 12.5 321 9.8
2011-03-21 08:00:54 51°15.184 2°54.245 327.3 12.5 321 9.8
2011-03-21 08:01:00 51°15.2 2°54.225 328 12.5 321 9.9
2011-03-21 08:01:05 51°15.213 2°54.207 328.2 12.5 321 9.7
2011-03-21 08:01:10 51°15.227 2°54.19 328.2 12.5 320 9.9
2011-03-21 08:01:14 51°15.237 2°54.175 327.7 12.6 320 9.8
2011-03-21 08:01:20 51°15.253 2°54.153 327.3 12.6 319 9.9
2011-03-21 08:01:25 51°15.266 2°54.134 326.7 12.6 318 9.8
2011-03-21 08:01:30 51°15.278 2°54.115 325.8 12.6 316 9.6
2011-03-21 08:01:34 51°15.288 2°54.099 324.6 12.7 315 9.7
2011-03-21 08:01:40 51°15.303 2°54.075 324.2 12.7 315 9.7
2011-03-21 08:01:45 51°15.316 2°54.056 324 12.6 316 10
2011-03-21 08:01:50 51°15.329 2°54.037 324.9 12.6 317 9.7
2011-03-21 08:01:54 51°15.339 2°54.022 325.9 12.6 318 10
2011-03-21 08:02:00 51°15.355 2°54 326.5 12.6 318 9.9
2011-03-21 08:02:05 51°15.368 2°53.982 327.3 12.6 319 9.7
2011-03-21 08:02:10 51°15.381 2°53.964 328.4 12.6 320 9.7
2011-03-21 08:02:15 51°15.395 2°53.947 329 12.6 320 9.8
2011-03-21 08:02:20 51°15.408 2°53.929 329.8 12.6 321 9.7
2011-03-21 08:02:25 51°15.422 2°53.912 330.3 12.6 321 10
2011-03-21 08:02:30 51°15.436 2°53.895 330.9 12.6 322 10.2
2011-03-21 08:02:34 51°15.447 2°53.881 331.3 12.6 322 9.9
2011-03-21 08:02:40 51°15.463 2°53.86 331.3 12.6 322 9.7
2011-03-21 08:02:45 51°15.477 2°53.843 331.1 12.6 321 10.1
2011-03-21 08:02:50 51°15.49 2°53.825 330.3 12.6 320 9.9
2011-03-21 08:02:55 51°15.503 2°53.807 329.8 12.6 320 10.3
2011-03-21 08:03:00 51°15.517 2°53.789 329.1 12.7 319 10
2011-03-21 08:03:05 51°15.53 2°53.77 328.5 12.7 319 10
2011-03-21 08:03:10 51°15.543 2°53.751 328 12.7 319 10.1
2011-03-21 08:03:14 51°15.553 2°53.736 327.8 12.6 319 9.8
2011-03-21 08:03:20 51°15.569 2°53.714 327.8 12.6 319 9.7
2011-03-21 08:03:25 51°15.583 2°53.697 328.8 12.6 321 9.9
2011-03-21 08:03:30 51°15.596 2°53.68 330.3 12.5 322 9.7
2011-03-21 08:03:34 51°15.607 2°53.667 331.8 12.5 323 9.7
2011-03-21 08:03:40 51°15.624 2°53.647 333 12.5 324 9.7
2011-03-21 08:03:45 51°15.638 2°53.631 333.9 12.4 325 9.9
2011-03-21 08:03:50 51°15.653 2°53.616 334.7 12.4 326 10
2011-03-21 08:03:54 51°15.664 2°53.604 335.2 12.4 327 10
2011-03-21 08:04:00 51°15.681 2°53.586 335.7 12.4 327 9.7
2011-03-21 08:04:05 51°15.696 2°53.571 335.7 12.4 327 9.7
2011-03-21 08:04:10 51°15.71 2°53.556 335.4 12.4 326 10.4
2011-03-21 08:04:14 51°15.721 2°53.543 334.6 12.4 325 9.8
2011-03-21 08:04:20 51°15.738 2°53.523 333.5 12.5 324 9.8
2011-03-21 08:04:25 51°15.752 2°53.507 332.4 12.5 323 10.3
2011-03-21 08:04:30 51°15.766 2°53.49 331.6 12.5 323 9.9
2011-03-21 08:04:35 51°15.779 2°53.474 331.1 12.4 323 9.9
2011-03-21 08:04:40 51°15.793 2°53.458 331.3 12.4 324 10
2011-03-21 08:04:45 51°15.807 2°53.442 332.2 12.4 325 10
2011-03-21 08:04:50 51°15.822 2°53.427 333.2 12.4 326 10.3
2011-03-21 08:04:55 51°15.836 2°53.412 334 12.4 326 10.2
2011-03-21 08:05:00 51°15.851 2°53.398 335.2 12.3 329 10.5
2011-03-21 08:05:05 51°15.866 2°53.384 337.1 12.3 330 10.7
2011-03-21 08:05:10 51°15.88 2°53.371 338.5 12.3 331 10
2011-03-21 08:05:14 51°15.893 2°53.361 340.1 12.2 333 10.1
2011-03-21 08:05:20 51°15.911 2°53.347 341.1 12.2 333 10.5
2011-03-21 08:05:25 51°15.926 2°53.335 341.5 12.2 333 10.4
2011-03-21 08:05:30 51°15.941 2°53.322 341.7 12.2 333 10.4
2011-03-21 08:05:34 51°15.953 2°53.312 341.3 12.2 332 10.1
2011-03-21 08:05:40 51°15.97 2°53.297 341 12.2 332 10.1
2011-03-21 08:05:45 51°15.985 2°53.284 340.5 12.2 331 10
2011-03-21 08:05:50 51°16 2°53.271 340 12.2 331 10.1
2011-03-21 08:05:54 51°16.012 2°53.26 339.7 12.2 330 10.1
2011-03-21 08:06:00 51°16.03 2°53.244 339 12.2 330 10.1
2011-03-21 08:06:05 51°16.044 2°53.23 338.4 12.2 329 10.1
2011-03-21 08:06:10 51°16.059 2°53.216 337.6 12.2 328 10.1
2011-03-21 08:06:15 51°16.073 2°53.202 337.2 12.2 328 10.1
2011-03-21 08:06:20 51°16.087 2°53.187 337 12.2 328 10.2
2011-03-21 08:06:25 51°16.102 2°53.173 336.9 12.2 328 10.3
2011-03-21 08:06:30 51°16.116 2°53.159 337.2 12.2 329 10.3
2011-03-21 08:06:35 51°16.131 2°53.146 338.3 12.2 331 10.3
2011-03-21 08:06:40 51°16.146 2°53.132 339 12.2 331 10.2
2011-03-21 08:06:45 51°16.16 2°53.12 339.8 12.1 332 10.3
2011-03-21 08:06:50 51°16.175 2°53.107 340.4 12.1 332 10.3
2011-03-21 08:06:55 51°16.19 2°53.094 340.7 12.1 332 10.3
2011-03-21 08:07:00 51°16.205 2°53.082 340.7 12.1 331 10.3
2011-03-21 08:07:05 51°16.219 2°53.069 340.5 12.1 331 10.3
2011-03-21 08:07:10 51°16.234 2°53.055 340.3 12.1 331 10.3
2011-03-21 08:07:14 51°16.246 2°53.045 339.9 12.1 331 10.3
2011-03-21 08:07:20 51°16.263 2°53.029 339.7 12.1 330 10.4
2011-03-21 08:07:25 51°16.278 2°53.016 339 12.1 329 10.4
2011-03-21 08:07:30 51°16.293 2°53.003 338.5 12.1 330 10.4
2011-03-21 08:07:34 51°16.304 2°52.992 338.8 12.1 331 10.4
2011-03-21 08:07:40 51°16.322 2°52.977 339.2 12 332 10.4
2011-03-21 08:07:45 51°16.337 2°52.965 340 12 333 10.4
2011-03-21 08:07:50 51°16.352 2°52.954 340.9 12 334 10.4
2011-03-21 08:07:54 51°16.364 2°52.945 341.4 12 335 10.4
2011-03-21 08:08:00 51°16.382 2°52.931 341.8 12 335 10.4
2011-03-21 08:08:05 51°16.397 2°52.919 341.4 12 334 10.4
2011-03-21 08:08:10 51°16.412 2°52.908 341 12 334 10.3
2011-03-21 08:08:15 51°16.427 2°52.896 340.4 12 333 10.4
2011-03-21 08:08:20 51°16.442 2°52.884 339.9 12.1 333 10.4
2011-03-21 08:08:25 51°16.456 2°52.871 339.4 12.1 332 10.3
2011-03-21 08:08:30 51°16.471 2°52.859 338.9 12.1 332 10.3
2011-03-21 08:08:35 51°16.486 2°52.845 338.3 12.1 331 10.3
2011-03-21 08:08:40 51°16.5 2°52.833 337.6 12.1 332 10.2
2011-03-21 08:08:45 51°16.515 2°52.82 337.6 12.1 332 10.2
2011-03-21 08:08:50 51°16.53 2°52.808 337.8 12 333 10.2
2011-03-21 08:08:55 51°16.546 2°52.797 339.3 12 335 10.2
2011-03-21 08:09:00 51°16.561 2°52.787 340.7 12 336 10.1
2011-03-21 08:09:05 51°16.576 2°52.776 341.9 11.9 337 10
2011-03-21 08:09:10 51°16.591 2°52.766 343.1 11.9 338 10
2011-03-21 08:09:15 51°16.607 2°52.757 343.8 11.9 338 10
2011-03-21 08:09:20 51°16.622 2°52.747 344.3 11.9 339 9.8
2011-03-21 08:09:25 51°16.637 2°52.738 344.7 11.8 339 9.8
2011-03-21 08:09:30 51°16.653 2°52.728 344.8 11.8 339 9.7
2011-03-21 08:09:34 51°16.665 2°52.721 344.9 11.8 339 9.4
2011-03-21 08:09:40 51°16.683 2°52.709 344.7 11.8 338 9.4
2011-03-21 08:09:45 51°16.698 2°52.699 344.3 11.8 338 9.3
2011-03-21 08:09:50 51°16.713 2°52.689 344.1 11.7 338 8.9
2011-03-21 08:09:54 51°16.725 2°52.682 343.9 11.7 337 8.8
2011-03-21 08:10:00 51°16.743 2°52.669 343.4 11.6 337 8.3
2011-03-21 08:10:05 51°16.758 2°52.659 343.2 11.5 337 8.3
2011-03-21 08:10:10 51°16.772 2°52.648 342.4 11.5 335 8.4
2011-03-21 08:10:14 51°16.783 2°52.64 341.9 11.5 335 8.2
2011-03-21 08:10:20 51°16.8 2°52.626 341.1 11.5 334 8.4
2011-03-21 08:10:25 51°16.815 2°52.614 340.3 11.5 333 8.1
2011-03-21 08:10:30 51°16.829 2°52.603 339.6 11.5 333 8.2
2011-03-21 08:10:34 51°16.84 2°52.593 339.3 11.5 333 8.2
2011-03-21 08:10:40 51°16.857 2°52.579 339 11.5 332 8.3
2011-03-21 08:10:45 51°16.871 2°52.567 339 11.5 333 8.3
2011-03-21 08:10:50 51°16.886 2°52.556 339.2 11.5 333 8.4
2011-03-21 08:10:54 51°16.897 2°52.548 340.4 11.5 335 6
2011-03-21 08:11:00 51°16.915 2°52.536 341.8 11.5 337 8.2
2011-03-21 08:11:05 51°16.93 2°52.527 344 11.5 340 8.2
2011-03-21 08:11:10 51°16.945 2°52.519 346.1 11.5 341 8.2
2011-03-21 08:11:15 51°16.96 2°52.511 347.7 11.4 343 8.1
2011-03-21 08:11:20 51°16.975 2°52.504 349.1 11.3 343 8.2
2011-03-21 08:11:25 51°16.991 2°52.497 349.9 11.3 344 6
2011-03-21 08:11:30 51°17.006 2°52.491 350.7 11.3 345 8
2011-03-21 08:11:34 51°17.018 2°52.486 351.3 11.3 345 8.1
2011-03-21 08:11:40 51°17.036 2°52.478 351.5 11.4 345 8.3
2011-03-21 08:11:45 51°17.052 2°52.471 351.5 11.4 344 8.2
2011-03-21 08:11:50 51°17.067 2°52.464 351 11.4 344 8
2011-03-21 08:11:54 51°17.079 2°52.458 350.3 11.4 343 8.3
2011-03-21 08:12:00 51°17.097 2°52.448 349.2 11.5 341 8.4
2011-03-21 08:12:05 51°17.112 2°52.44 347.8 11.5 340 8.4
2011-03-21 08:12:10 51°17.127 2°52.43 346.3 11.5 338 8.5
2011-03-21 08:12:14 51°17.139 2°52.422 345.2 11.6 337 8.2
2011-03-21 08:12:20 51°17.156 2°52.409 343.8 11.6 335 8.4
2011-03-21 08:12:25 51°17.171 2°52.398 342.9 11.6 335 8.5
2011-03-21 08:12:30 51°17.185 2°52.386 341.8 11.7 334 8.8
2011-03-21 08:12:34 51°17.197 2°52.377 341.3 11.7 334 8.5
2011-03-21 08:12:40 51°17.214 2°52.364 341.3 11.7 334 8.7
2011-03-21 08:12:45 51°17.229 2°52.353 341.4 11.7 335 8.7
2011-03-21 08:12:50 51°17.244 2°52.342 341.8 11.7 334 8.7
2011-03-21 08:12:54 51°17.256 2°52.333 341.9 11.7 335 8.9
2011-03-21 08:13:00 51°17.273 2°52.32 342.5 11.7 336 8.9
2011-03-21 08:13:05 51°17.288 2°52.31 343.1 11.7 338 9
2011-03-21 08:13:10 51°17.303 2°52.301 344.5 11.7 338 9
2011-03-21 08:13:14 51°17.315 2°52.293 345.4 11.6 339 8.7
2011-03-21 08:13:20 51°17.333 2°52.282 346 11.6 339 8.9
2011-03-21 08:13:25 51°17.348 2°52.273 346.4 11.6 340 9.1
2011-03-21 08:13:30 51°17.363 2°52.264 346.9 11.6 339 9.2
2011-03-21 08:13:35 51°17.378 2°52.255 346.8 11.7 340 9.5
2011-03-21 08:13:40 51°17.393 2°52.246 346.6 11.7 339 9.7
2011-03-21 08:13:45 51°17.408 2°52.236 346.1 11.7 339 9.9
2011-03-21 08:13:50 51°17.423 2°52.226 345.4 11.7 337 10
2011-03-21 08:13:55 51°17.438 2°52.216 344.5 11.7 337 10
2011-03-21 08:14:00 51°17.453 2°52.205 343.8 11.7 335 9.7
2011-03-21 08:14:05 51°17.468 2°52.194 343.2 11.7 335 9.6
2011-03-21 08:14:10 51°17.482 2°52.183 342.4 11.7 334 10
2011-03-21 08:14:14 51°17.494 2°52.174 341.9 11.7 334 9.9
2011-03-21 08:14:20 51°17.511 2°52.16 341.8 11.6 335 10
2011-03-21 08:14:25 51°17.526 2°52.15 342 11.6 335 9.9
2011-03-21 08:14:30 51°17.541 2°52.14 342.9 11.6 336 9.9
2011-03-21 08:14:34 51°17.553 2°52.132 343.8 11.6 337 9.8
2011-03-21 08:14:40 51°17.57 2°52.12 344.6 11.5 337 9.7
2011-03-21 08:14:45 51°17.585 2°52.111 345.3 11.5 338 9.9
2011-03-21 08:14:50 51°17.6 2°52.101 345.6 11.5 338 9.9
2011-03-21 08:14:54 51°17.612 2°52.094 345.9 11.5 339 9.9
2011-03-21 08:15:00 51°17.63 2°52.083 346.2 11.5 339 9.9
2011-03-21 08:15:05 51°17.644 2°52.074 346.2 11.5 338 9.6
2011-03-21 08:15:10 51°17.66 2°52.064 345.9 11.5 338 9.5
2011-03-21 08:15:15 51°17.674 2°52.055 345.9 11.4 338 9.4
2011-03-21 08:15:20 51°17.689 2°52.045 345.9 11.4 338 9.5
2011-03-21 08:15:25 51°17.704 2°52.035 345.9 11.4 338 9.4
2011-03-21 08:15:30 51°17.718 2°52.025 345.5 11.4 337 9.5
2011-03-21 08:15:35 51°17.733 2°52.015 345 11.4 337 9.2
2011-03-21 08:15:40 51°17.748 2°52.005 344.1 11.5 335 9.4
2011-03-21 08:15:45 51°17.762 2°51.995 343.5 11.4 335 9.1
2011-03-21 08:15:50 51°17.776 2°51.984 343.1 11.4 334 8.7
2011-03-21 08:15:55 51°17.79 2°51.972 342.5 11.4 334 8.6
2011-03-21 08:16:00 51°17.804 2°51.961 342.2 11.4 334 8.8
2011-03-21 08:16:05 51°17.819 2°51.95 342 11.4 333 8.6
2011-03-21 08:16:10 51°17.833 2°51.939 341.7 11.5 334 8.8
2011-03-21 08:16:15 51°17.848 2°51.928 341.9 11.6 334 8.8
2011-03-21 08:16:20 51°17.862 2°51.917 342.2 11.6 334 8.8
2011-03-21 08:16:25 51°17.877 2°51.907 342.6 11.7 336 8.8
2011-03-21 08:16:30 51°17.892 2°51.896 343.8 11.7 337 8.8
2011-03-21 08:16:34 51°17.904 2°51.888 344.8 11.8 338 8.9
2011-03-21 08:16:40 51°17.922 2°51.877 345.7 11.8 339 8.8
2011-03-21 08:16:45 51°17.937 2°51.868 346.6 11.8 339 8.7
2011-03-21 08:16:50 51°17.953 2°51.859 347.1 11.9 340 8.9
2011-03-21 08:16:54 51°17.965 2°51.852 347.4 11.9 340 8.9
2011-03-21 08:17:00 51°17.984 2°51.84 347.3 11.9 339 8.9
2011-03-21 08:17:05 51°17.999 2°51.83 347 12 338 9.1
2011-03-21 08:17:10 51°18.015 2°51.82 346.3 12.1 338 9.1
2011-03-21 08:17:15 51°18.03 2°51.81 345.9 12.1 338 9.1
2011-03-21 08:17:20 51°18.046 2°51.799 345.5 12.2 336 9.1
2011-03-21 08:17:25 51°18.061 2°51.788 344.5 12.2 336 9.2
2011-03-21 08:17:30 51°18.077 2°51.776 343.7 12.2 335 9.2
2011-03-21 08:17:35 51°18.092 2°51.764 342.8 12.3 334 9.2
2011-03-21 08:17:40 51°18.107 2°51.753 342.1 12.3 333 9.4
2011-03-21 08:17:45 51°18.123 2°51.741 341.8 12.3 333 9.4
2011-03-21 08:17:50 51°18.138 2°51.728 341.7 12.3 334 9.5
2011-03-21 08:17:55 51°18.153 2°51.716 341.8 12.4 334 9.7
2011-03-21 08:18:00 51°18.168 2°51.704 342.3 12.3 335 9.7
2011-03-21 08:18:05 51°18.184 2°51.693 343.2 12.3 336 9.9
2011-03-21 08:18:10 51°18.2 2°51.682 344.1 12.4 336 10
2011-03-21 08:18:15 51°18.216 2°51.672 344.8 12.3 337 10
2011-03-21 08:18:20 51°18.231 2°51.661 345.4 12.4 337 10.2
2011-03-21 08:18:25 51°18.247 2°51.65 345.6 12.4 338 10
2011-03-21 08:18:30 51°18.263 2°51.64 345.7 12.4 337 10.2
2011-03-21 08:18:34 51°18.276 2°51.631 345.7 12.4 337 10.2
2011-03-21 08:18:40 51°18.294 2°51.618 345.2 12.4 336 10.4
2011-03-21 08:18:45 51°18.31 2°51.607 344.8 12.4 336 10.7
2011-03-21 08:18:50 51°18.326 2°51.595 344.5 12.4 336 10.8
2011-03-21 08:18:54 51°18.339 2°51.587 344.5 12.4 336 10.7
2011-03-21 08:19:00 51°18.358 2°51.573 344.5 12.4 336 11
2011-03-21 08:19:05 51°18.373 2°51.562 344.5 12.4 336 11
2011-03-21 08:19:10 51°18.389 2°51.551 344.7 12.4 336 11.1
2011-03-21 08:19:14 51°18.402 2°51.542 344.8 12.4 336 11.2
2011-03-21 08:19:20 51°18.421 2°51.529 345 12.4 336 11.3
2011-03-21 08:19:25 51°18.437 2°51.518 345 12.4 336 11.5
2011-03-21 08:19:30 51°18.452 2°51.507 345.1 12.4 336 11.6
2011-03-21 08:19:35 51°18.468 2°51.495 345.2 12.4 336 11.6
2011-03-21 08:19:40 51°18.484 2°51.484 345.3 12.4 336 11.7
2011-03-21 08:19:45 51°18.5 2°51.472 344.8 12.5 335 11.8
2011-03-21 08:19:50 51°18.515 2°51.46 344.5 12.5 334 11.9
2011-03-21 08:19:55 51°18.531 2°51.448 344 12.6 333 11.9
2011-03-21 08:20:00 51°18.546 2°51.435 343.4 12.6 333 12
2011-03-21 08:20:05 51°18.562 2°51.422 343.2 12.6 333 12.2
2011-03-21 08:20:10 51°18.578 2°51.41 343.2 12.6 333 12.3
2011-03-21 08:20:15 51°18.593 2°51.398 343.6 12.6 334 12.4
2011-03-21 08:20:20 51°18.609 2°51.385 344.2 12.6 334 12.5
2011-03-21 08:20:25 51°18.625 2°51.373 344.6 12.6 334 12.5
2011-03-21 08:20:30 51°18.641 2°51.362 345 12.6 335 12.7
2011-03-21 08:20:35 51°18.657 2°51.35 345.3 12.6 335 12.8
2011-03-21 08:20:40 51°18.672 2°51.338 345.3 12.6 335 12.7
2011-03-21 08:20:45 51°18.688 2°51.326 345.3 12.6 334 12.8
2011-03-21 08:20:50 51°18.704 2°51.314 344.9 12.6 334 12.9
2011-03-21 08:20:54 51°18.717 2°51.304 344.7 12.6 334 13.1
2011-03-21 08:21:00 51°18.735 2°51.289 344.5 12.6 334 12.9
2011-03-21 08:21:05 51°18.751 2°51.277 344.6 12.6 334 12.9
2011-03-21 08:21:10 51°18.767 2°51.265 344.6 12.6 335 13.1
2011-03-21 08:21:14 51°18.78 2°51.256 344.8 12.6 335 13.2
2011-03-21 08:21:20 51°18.799 2°51.241 344.9 12.6 335 13.2
2011-03-21 08:21:25 51°18.814 2°51.229 345.1 12.6 335 13.1
2011-03-21 08:21:30 51°18.83 2°51.217 345.3 12.6 335 13.4
2011-03-21 08:21:34 51°18.842 2°51.207 345.3 12.6 334 13.4
2011-03-21 08:21:40 51°18.861 2°51.193 345.1 12.6 334 13.5
2011-03-21 08:21:45 51°18.877 2°51.18 344.9 12.6 334 13.5
2011-03-21 08:21:50 51°18.893 2°51.168 344.5 12.6 333 13.5
2011-03-21 08:21:55 51°18.908 2°51.155 344.1 12.6 332 13.6
2011-03-21 08:22:00 51°18.924 2°51.142 343.4 12.6 332 13.7
2011-03-21 08:22:05 51°18.939 2°51.128 343.4 12.6 332 13.6
2011-03-21 08:22:10 51°18.954 2°51.115 343.4 12.6 332 13.5
2011-03-21 08:22:15 51°18.969 2°51.102 343.6 12.6 332 13.7
2011-03-21 08:22:20 51°18.985 2°51.089 343.9 12.6 332 13.7
2011-03-21 08:22:25 51°19 2°51.076 344.4 12.5 333 13.8
2011-03-21 08:22:30 51°19.016 2°51.064 344.8 12.5 333 13.8
2011-03-21 08:22:35 51°19.032 2°51.051 345 12.5 333 13.7
2011-03-21 08:22:40 51°19.047 2°51.039 345.3 12.5 333 13.7
2011-03-21 08:22:45 51°19.063 2°51.027 345.4 12.5 334 13.8
2011-03-21 08:22:50 51°19.078 2°51.015 345.6 12.5 334 13.8
2011-03-21 08:22:55 51°19.094 2°51.002 345.6 12.5 333 13.8
2011-03-21 08:23:00 51°19.109 2°50.99 345.3 12.5 333 13.8
2011-03-21 08:23:05 51°19.125 2°50.977 344.8 12.5 333 13.7
2011-03-21 08:23:10 51°19.14 2°50.964 344.6 12.5 332 13.7
2011-03-21 08:23:14 51°19.152 2°50.954 344.2 12.5 332 13.7
2011-03-21 08:23:20 51°19.171 2°50.938 344.1 12.6 332 13.7
2011-03-21 08:23:25 51°19.186 2°50.925 343.7 12.6 332 13.7
2011-03-21 08:23:30 51°19.202 2°50.912 343.9 12.6 332 13.7
2011-03-21 08:23:34 51°19.214 2°50.901 344.1 12.5 333 13.4
2011-03-21 08:23:40 51°19.233 2°50.886 344.6 12.6 333 13.4
2011-03-21 08:23:45 51°19.248 2°50.874 344.7 12.5 333 13.2
2011-03-21 08:23:50 51°19.264 2°50.861 344.8 12.5 333 13.4
2011-03-21 08:23:55 51°19.28 2°50.849 344.8 12.6 333 13.3
2011-03-21 08:24:00 51°19.295 2°50.836 344.8 12.6 333 13.2
2011-03-21 08:24:05 51°19.31 2°50.823 344.8 12.6 333 13
2011-03-21 08:24:10 51°19.326 2°50.81 344.6 12.6 332 13.2
2011-03-21 08:24:15 51°19.341 2°50.797 344.5 12.6 333 13.1
2011-03-21 08:24:20 51°19.356 2°50.784 344.5 12.6 332 13.1
2011-03-21 08:24:25 51°19.372 2°50.771 344.4 12.6 333 12.7
2011-03-21 08:24:30 51°19.387 2°50.758 344.4 12.6 333 12.5
2011-03-21 08:24:35 51°19.403 2°50.745 344.6 12.6 333 12.3
2011-03-21 08:24:40 51°19.419 2°50.733 344.8 12.5 334 11.9
2011-03-21 08:24:45 51°19.434 2°50.721 345.2 12.5 334 11.9
2011-03-21 08:24:50 51°19.45 2°50.709 345.6 12.5 334 11.7
2011-03-21 08:24:55 51°19.466 2°50.698 345.7 12.5 335 11.3
2011-03-21 08:25:00 51°19.481 2°50.686 345.7 12.5 335 11.3
2011-03-21 08:25:05 51°19.497 2°50.675 345.8 12.5 335 11.2
2011-03-21 08:25:10 51°19.512 2°50.663 345.6 12.5 335 11.3
2011-03-21 08:25:14 51°19.525 2°50.653 345.2 12.5 335 11.1
2011-03-21 08:25:20 51°19.544 2°50.639 344.8 12.5 334 11
2011-03-21 08:25:25 51°19.56 2°50.627 344.6 12.5 334 10.9
2011-03-21 08:25:30 51°19.576 2°50.615 344.3 12.6 334 10.7
2011-03-21 08:25:34 51°19.588 2°50.605 344.1 12.6 334 10.5
2011-03-21 08:25:40 51°19.606 2°50.59 344.1 12.6 334 10.6
2011-03-21 08:25:45 51°19.623 2°50.579 344.2 12.5 335 10.3
2011-03-21 08:25:50 51°19.638 2°50.567 344.6 12.6 335 10.6
2011-03-21 08:25:54 51°19.651 2°50.558 345.1 12.6 336 10.8
2011-03-21 08:26:00 51°19.671 2°50.545 345.4 12.6 336 10.8
2011-03-21 08:26:05 51°19.686 2°50.533 345.4 12.6 336 10.9
2011-03-21 08:26:10 51°19.702 2°50.521 345.2 12.7 335 11
2011-03-21 08:26:14 51°19.715 2°50.512 344.6 12.7 335 11.2
2011-03-21 08:26:20 51°19.734 2°50.497 344.1 12.8 334 11.2
2011-03-21 08:26:25 51°19.749 2°50.484 343.4 12.8 334 11.5
2011-03-21 08:26:30 51°19.765 2°50.471 343.3 12.8 334 11.7
2011-03-21 08:26:34 51°19.778 2°50.461 343.2 12.8 334 11.8
2011-03-21 08:26:40 51°19.797 2°50.447 343.4 12.8 334 11.9
2011-03-21 08:26:45 51°19.813 2°50.435 343.8 12.8 335 12.2
2011-03-21 08:26:50 51°19.83 2°50.423 344.4 12.8 335 12.3
2011-03-21 08:26:54 51°19.842 2°50.414 345 12.7 336 12.5
2011-03-21 08:27:00 51°19.862 2°50.4 345.3 12.8 335 12.6
2011-03-21 08:27:05 51°19.878 2°50.388 345.2 12.8 335 12.7
2011-03-21 08:27:10 51°19.894 2°50.376 344.7 12.8 334 12.9
2011-03-21 08:27:15 51°19.91 2°50.363 344 12.8 334 13.1
2011-03-21 08:27:20 51°19.926 2°50.35 343.4 12.8 333 13.3
2011-03-21 08:27:25 51°19.942 2°50.338 343.2 12.8 333 13.3
2011-03-21 08:27:30 51°19.958 2°50.325 343.1 12.8 334 13.7
2011-03-21 08:27:34 51°19.97 2°50.315 343.3 12.8 334 13.7
2011-03-21 08:27:40 51°19.989 2°50.3 343.4 12.8 334 13.6
2011-03-21 08:27:45 51°20.005 2°50.287 343.6 12.8 333 13.5
2011-03-21 08:27:50 51°20.021 2°50.274 343.8 12.8 334 13.7
2011-03-21 08:27:54 51°20.034 2°50.264 344 12.8 333 13.6
2011-03-21 08:28:00 51°20.053 2°50.249 344.2 12.8 334 14
2011-03-21 08:28:05 51°20.069 2°50.236 344.5 12.9 334 14
2011-03-21 08:28:10 51°20.085 2°50.224 344.8 12.9 334 14.1
2011-03-21 08:28:14 51°20.098 2°50.214 344.8 12.9 334 14.4
2011-03-21 08:28:20 51°20.117 2°50.199 344.8 12.9 334 14.6
2011-03-21 08:28:25 51°20.133 2°50.186 344.8 12.9 334 15.1
2011-03-21 08:28:30 51°20.149 2°50.173 344.7 12.9 333 15.3
2011-03-21 08:28:34 51°20.162 2°50.162 344.5 13 333 15.5
2011-03-21 08:28:40 51°20.181 2°50.147 344.3 12.9 333 15.8
2011-03-21 08:28:45 51°20.197 2°50.134 344.3 13 333 16
2011-03-21 08:28:50 51°20.213 2°50.121 344.2 13 333 16.2
2011-03-21 08:28:55 51°20.229 2°50.108 344.1 13 333 16.6
2011-03-21 08:29:00 51°20.245 2°50.095 344 13 333 16.8
2011-03-21 08:29:05 51°20.261 2°50.082 343.8 13 333 17.1
2011-03-21 08:29:10 51°20.277 2°50.069 343.7 13 333 17.3
2011-03-21 08:29:15 51°20.293 2°50.055 343.6 13 332 17.5
2011-03-21 08:29:20 51°20.309 2°50.042 343.7 13 333 17.9
2011-03-21 08:29:25 51°20.325 2°50.029 343.9 13 333 18.1
2011-03-21 08:29:30 51°20.341 2°50.016 343.9 13 333 18.2
2011-03-21 08:29:34 51°20.354 2°50.006 344 13 333 18.5
2011-03-21 08:29:40 51°20.374 2°49.991 344.8 12.9 335 18.7
2011-03-21 08:29:45 51°20.39 2°49.979 345.8 13 334 18.9
2011-03-21 08:29:50 51°20.406 2°49.967 346.3 12.9 335 19.2
2011-03-21 08:29:54 51°20.419 2°49.957 346.7 13 335 19.4
2011-03-21 08:30:00 51°20.439 2°49.943 347.1 12.9 336 19.7
2011-03-21 08:30:05 51°20.455 2°49.932 347.6 12.9 336 19.9
2011-03-21 08:30:10 51°20.472 2°49.92 347.8 12.9 337 20.2
2011-03-21 08:30:14 51°20.485 2°49.911 348.1 13 336 20.5
2011-03-21 08:30:20 51°20.505 2°49.897 348.2 13 337 20.7
2011-03-21 08:30:25 51°20.521 2°49.886 348.3 13 336 20.8
2011-03-21 08:30:30 51°20.538 2°49.875 348.3 13 336 21
2011-03-21 08:30:34 51°20.551 2°49.865 348.1 13 336 21
2011-03-21 08:30:40 51°20.571 2°49.851 347.8 13 336 21.4
2011-03-21 08:30:45 51°20.587 2°49.839 347.4 13 335 21.4
2011-03-21 08:30:50 51°20.604 2°49.827 347.2 13 336 21.6
2011-03-21 08:30:55 51°20.62 2°49.815 347.2 13.1 335 21.7
2011-03-21 08:31:00 51°20.637 2°49.803 347.4 13.1 336 21.7
2011-03-21 08:31:05 51°20.654 2°49.791 347.6 13.1 336 21.9
2011-03-21 08:31:10 51°20.67 2°49.78 347.7 13.1 336 21.8
2011-03-21 08:31:15 51°20.687 2°49.768 347.7 13 336 21.9
2011-03-21 08:31:20 51°20.703 2°49.756 347.5 13 336 21.9
2011-03-21 08:31:25 51°20.719 2°49.744 347.3 13.1 336 22.2
2011-03-21 08:31:30 51°20.736 2°49.731 347.3 13.1 336 22.2
2011-03-21 08:31:35 51°20.752 2°49.719 347.2 13.1 336 22
2011-03-21 08:31:40 51°20.769 2°49.708 347.3 13.1 336 22
2011-03-21 08:31:45 51°20.786 2°49.697 347.4 13.1 336 22.1
2011-03-21 08:31:50 51°20.802 2°49.685 347.7 13 336 22
2011-03-21 08:31:54 51°20.815 2°49.675 347.8 13 337 22.2
2011-03-21 08:32:00 51°20.835 2°49.662 348.1 13 337 22.3
2011-03-21 08:32:05 51°20.852 2°49.651 348.4 13 337 21.8
2011-03-21 08:32:10 51°20.869 2°49.639 348.5 13 337 22.3
2011-03-21 08:32:14 51°20.882 2°49.63 348.4 13 337 22.2
2011-03-21 08:32:20 51°20.902 2°49.616 347.9 13.1 336 22.3
2011-03-21 08:32:25 51°20.918 2°49.604 347.4 13.1 335 22.2
2011-03-21 08:32:30 51°20.935 2°49.592 347 13.1 335 22.1
2011-03-21 08:32:34 51°20.948 2°49.583 346.8 13.1 335 22.2
2011-03-21 08:32:40 51°20.968 2°49.568 346.8 13.1 335 22.1
2011-03-21 08:32:45 51°20.984 2°49.555 346.7 13.1 335 22.1
2011-03-21 08:32:50 51°21.001 2°49.543 346.7 13.1 335 22.1
2011-03-21 08:32:55 51°21.017 2°49.531 346.8 13.1 335 22
2011-03-21 08:33:00 51°21.034 2°49.519 347 13.1 336 22
2011-03-21 08:33:05 51°21.05 2°49.508 347.4 13.1 336 21.9
2011-03-21 08:33:10 51°21.067 2°49.496 348 13 337 21.8
2011-03-21 08:33:15 51°21.083 2°49.485 348.2 13 337 21.7
2011-03-21 08:33:20 51°21.1 2°49.473 348.3 13 337 21.7
2011-03-21 08:33:25 51°21.117 2°49.462 348.3 13 337 21.7
2011-03-21 08:33:30 51°21.133 2°49.45 348.1 13 337 21.6
2011-03-21 08:33:34 51°21.146 2°49.441 347.7 13 336 21.7
2011-03-21 08:33:40 51°21.166 2°49.427 347.6 13.1 336 21.6
2011-03-21 08:33:45 51°21.183 2°49.415 347.5 13.1 336 21.3
2011-03-21 08:33:50 51°21.2 2°49.404 347.2 13.1 336 21.4
2011-03-21 08:33:54 51°21.213 2°49.394 347.2 13.1 336 21.3
2011-03-21 08:34:00 51°21.233 2°49.38 347.4 13 337 21.5
2011-03-21 08:34:05 51°21.249 2°49.369 347.7 13 337 21.3
2011-03-21 08:34:10 51°21.266 2°49.357 347.8 13.1 337 21.3
2011-03-21 08:34:14 51°21.279 2°49.348 347.7 13.1 336 21.3
2011-03-21 08:34:20 51°21.299 2°49.334 347.3 13.1 337 21.2
2011-03-21 08:34:25 51°21.316 2°49.322 347.2 13.1 337 21.1
2011-03-21 08:34:30 51°21.333 2°49.311 347.4 13.1 337 21.1
2011-03-21 08:34:34 51°21.346 2°49.302 347.7 13 337 20.9
2011-03-21 08:34:40 51°21.366 2°49.289 348 13 337 20.8
2011-03-21 08:34:45 51°21.383 2°49.278 348.2 13 338 20.8
2011-03-21 08:34:50 51°21.399 2°49.266 348.5 13 337 20.7
2011-03-21 08:34:54 51°21.413 2°49.257 348.3 13 337 20.5
2011-03-21 08:35:00 51°21.432 2°49.243 347.7 13.1 336 20.7
2011-03-21 08:35:05 51°21.449 2°49.231 347.1 13.1 336 20.8
2011-03-21 08:35:10 51°21.465 2°49.219 346.9 13.1 336 21
2011-03-21 08:35:15 51°21.482 2°49.207 346.8 13.1 336 20.9
2011-03-21 08:35:20 51°21.498 2°49.196 347.1 13.1 337 20.8
2011-03-21 08:35:25 51°21.515 2°49.185 347.7 13.1 337 20.9
2011-03-21 08:35:30 51°21.532 2°49.174 348.3 13 337 20.9
2011-03-21 08:35:35 51°21.549 2°49.163 348.5 13.1 338 21.1
2011-03-21 08:35:40 51°21.566 2°49.152 348.5 13.1 338 21
2011-03-21 08:35:45 51°21.582 2°49.141 348.4 13.1 338 20.9
2011-03-21 08:35:50 51°21.599 2°49.13 348.4 13.1 337 21.3
2011-03-21 08:35:55 51°21.616 2°49.118 348 13.1 337 21.5
2011-03-21 08:36:00 51°21.632 2°49.107 347.6 13.1 337 21.7
2011-03-21 08:36:05 51°21.649 2°49.095 347.3 13.1 336 22
2011-03-21 08:36:10 51°21.666 2°49.083 347 13.1 336 22.1
2011-03-21 08:36:15 51°21.682 2°49.071 346.9 13.1 336 22.3
2011-03-21 08:36:20 51°21.699 2°49.059 346.8 13.1 336 22.6
2011-03-21 08:36:25 51°21.716 2°49.048 346.8 13.1 336 22.4
2011-03-21 08:36:30 51°21.732 2°49.036 346.9 13.1 337 22.4
2011-03-21 08:36:34 51°21.746 2°49.027 347 13.1 337 22.5
2011-03-21 08:36:40 51°21.766 2°49.013 347.1 13.1 337 22.5
2011-03-21 08:36:45 51°21.783 2°49.002 347.4 13.1 337 22.5
2011-03-21 08:36:50 51°21.799 2°48.991 347.7 13.1 337 22.6
2011-03-21 08:36:54 51°21.813 2°48.982 347.7 13.2 337 22.6
2011-03-21 08:37:00 51°21.833 2°48.968 347.3 13.2 337 22.6
2011-03-21 08:37:05 51°21.85 2°48.956 347.1 13.2 336 22.5
2011-03-21 08:37:10 51°21.866 2°48.944 346.8 13.2 336 22.5
2011-03-21 08:37:14 51°21.88 2°48.935 346.7 13.2 336 22.7
2011-03-21 08:37:20 51°21.9 2°48.921 347 13.2 337 22.4
2011-03-21 08:37:25 51°21.917 2°48.91 347.2 13.2 337 22.6
2011-03-21 08:37:30 51°21.934 2°48.899 347.6 13.1 337 22.5
2011-03-21 08:37:34 51°21.947 2°48.89 347.8 13.1 338 22.5
2011-03-21 08:37:40 51°21.967 2°48.877 347.9 13.2 337 22.3
2011-03-21 08:37:45 51°21.984 2°48.865 347.8 13.2 337 22.7
2011-03-21 08:37:50 51°22.001 2°48.854 347.7 13.2 337 22.5
2011-03-21 08:37:54 51°22.014 2°48.845 347.5 13.2 337 22.5
2011-03-21 08:38:00 51°22.035 2°48.831 347.1 13.2 337 22.7
2011-03-21 08:38:05 51°22.052 2°48.819 346.9 13.2 337 22.7
2011-03-21 08:38:10 51°22.068 2°48.807 346.7 13.3 336 22.7
2011-03-21 08:38:15 51°22.085 2°48.795 346.6 13.3 336 22.7
2011-03-21 08:38:20 51°22.102 2°48.783 346.5 13.3 336 22.8
2011-03-21 08:38:25 51°22.119 2°48.772 346.5 13.3 337 22.6
2011-03-21 08:38:30 51°22.136 2°48.76 346.6 13.3 337 23.1
2011-03-21 08:38:34 51°22.15 2°48.752 347 13.2 338 22.8
2011-03-21 08:38:40 51°22.17 2°48.74 347.9 13.2 340 23.2
2011-03-21 08:38:45 51°22.188 2°48.732 351.1 13 344 22.5
2011-03-21 08:38:50 51°22.205 2°48.725 354 12.9 345 22.6
2011-03-21 08:38:54 51°22.219 2°48.721 356.3 12.8 348 22.3
2011-03-21 08:39:00 51°22.24 2°48.714 357.9 12.8 349 22.6
2011-03-21 08:39:05 51°22.258 2°48.709 359.3 12.7 350 22.2
2011-03-21 08:39:10 51°22.275 2°48.705 0.2 12.7 351 22.2
2011-03-21 08:39:14 51°22.289 2°48.702 0.8 12.7 353 22.4
2011-03-21 08:39:20 51°22.31 2°48.701 2.9 12.4 357 22
2011-03-21 08:39:25 51°22.327 2°48.699 4.7 12.3 357 21.5
2011-03-21 08:39:30 51°22.344 2°48.699 5.6 12.2 359 20.5
2011-03-21 08:39:34 51°22.357 2°48.699 6.5 12.2 359 19.4
2011-03-21 08:39:40 51°22.377 2°48.698 6.7 12.1 359 18.1
2011-03-21 08:39:45 51°22.394 2°48.697 6.7 12 358 17.9
2011-03-21 08:39:50 51°22.411 2°48.696 6.2 12 358 23.3
2011-03-21 08:39:54 51°22.424 2°48.695 5.9 12 359 22.9
2011-03-21 08:40:00 51°22.444 2°48.695 6.4 12 359 22
2011-03-21 08:40:05 51°22.46 2°48.695 6.9 12 -999 21.2
2011-03-21 08:40:10 51°22.477 2°48.695 7.1 11.9 -999 19.8
2011-03-21 08:40:15 51°22.494 2°48.695 7.2 12 359 18.7
2011-03-21 08:40:20 51°22.51 2°48.694 6.8 11.9 -999 17.6
2011-03-21 08:40:25 51°22.527 2°48.694 6.4 11.9 359 17.1
2011-03-21 08:40:30 51°22.543 2°48.693 6.1 11.9 359 16.7
2011-03-21 08:40:35 51°22.56 2°48.692 5.7 11.9 358 14
2011-03-21 08:40:40 51°22.576 2°48.691 5.2 11.9 357 16.5
2011-03-21 08:40:45 51°22.593 2°48.69 4.8 11.8 357 17.3
2011-03-21 08:40:50 51°22.609 2°48.688 4.6 11.9 357 16.2
2011-03-21 08:40:54 51°22.622 2°48.687 4.4 11.9 356 14.7
2011-03-21 08:41:00 51°22.642 2°48.686 4.3 11.8 357 16.8
2011-03-21 08:41:05 51°22.658 2°48.684 4.9 11.7 358 17.3
2011-03-21 08:41:10 51°22.674 2°48.684 5.3 11.8 359 16.1
2011-03-21 08:41:14 51°22.687 2°48.683 5.9 11.8 358 14.1
2011-03-21 08:41:20 51°22.707 2°48.682 5.9 11.6 358 16.7
2011-03-21 08:41:25 51°22.723 2°48.68 5.8 11.7 357 17.2
2011-03-21 08:41:30 51°22.739 2°48.679 5.4 11.8 357 17.3
2011-03-21 08:41:34 51°22.752 2°48.678 5.2 11.8 357 16
2011-03-21 08:41:40 51°22.772 2°48.675 5 11.8 356 15
2011-03-21 08:41:45 51°22.788 2°48.673 4.6 11.7 356 15.9
2011-03-21 08:41:50 51°22.804 2°48.671 4.3 11.7 356 15.4
2011-03-21 08:41:54 51°22.817 2°48.669 4.3 11.7 355 14.3
2011-03-21 08:42:00 51°22.837 2°48.666 4.3 11.7 355 16.1
2011-03-21 08:42:05 51°22.853 2°48.665 4.3 11.7 356 17.1
2011-03-21 08:42:10 51°22.869 2°48.663 4.7 11.7 356 16.4
2011-03-21 08:42:14 51°22.882 2°48.662 5.6 11.7 357 17.4
2011-03-21 08:42:20 51°22.902 2°48.66 5.7 11.8 356 18.2
2011-03-21 08:42:25 51°22.918 2°48.659 5.5 11.8 357 18.3
2011-03-21 08:42:30 51°22.934 2°48.657 5.6 11.8 357 16.9
2011-03-21 08:42:34 51°22.947 2°48.656 5.9 11.8 357 15.9
2011-03-21 08:42:40 51°22.967 2°48.654 5.7 11.8 356 17.7
2011-03-21 08:42:45 51°22.983 2°48.652 5.3 11.8 356 18.4
2011-03-21 08:42:50 51°22.999 2°48.65 5.2 11.8 356 18.6
2011-03-21 08:42:55 51°23.016 2°48.648 5.3 11.8 356 18.1
2011-03-21 08:43:00 51°23.032 2°48.647 5.6 11.8 356 17.4
2011-03-21 08:43:05 51°23.048 2°48.645 5.7 11.8 356 15.8
2011-03-21 08:43:10 51°23.064 2°48.643 5.6 11.8 355 17.1
2011-03-21 08:43:14 51°23.078 2°48.641 5.4 11.8 355 18.4
2011-03-21 08:43:20 51°23.097 2°48.639 5.2 11.8 356 19.3
2011-03-21 08:43:25 51°23.114 2°48.637 5.9 11.8 357 19.7
2011-03-21 08:43:30 51°23.13 2°48.635 6.3 11.8 356 20
2011-03-21 08:43:34 51°23.143 2°48.634 6.5 11.8 356 20.2
2011-03-21 08:43:40 51°23.162 2°48.628 4.4 11.9 348 19.9
2011-03-21 08:43:45 51°23.178 2°48.62 358.8 12 344 20.1
2011-03-21 08:43:50 51°23.194 2°48.611 354.3 12.1 341 19.4
2011-03-21 08:43:54 51°23.207 2°48.602 350.7 12.3 337 18.5
2011-03-21 08:44:00 51°23.225 2°48.589 348.3 12.4 335 17.1
2011-03-21 08:44:05 51°23.241 2°48.576 346.3 12.5 333 18.8
2011-03-21 08:44:10 51°23.256 2°48.563 345 12.5 333 19.4
2011-03-21 08:44:14 51°23.268 2°48.553 344.3 12.5 333 19.8
2011-03-21 08:44:20 51°23.287 2°48.538 344.1 12.6 333 19.9
2011-03-21 08:44:24 51°23.3 2°48.528 344.3 12.6 333 20.6
2011-03-21 08:44:30 51°23.319 2°48.513 344.8 12.6 334 20.9
2011-03-21 08:44:34 51°23.331 2°48.504 345.2 12.6 335 21.2
2011-03-21 08:44:40 51°23.35 2°48.49 345.6 12.6 336 21.4
2011-03-21 08:44:45 51°23.366 2°48.479 345.8 12.6 336 21.3
2011-03-21 08:44:50 51°23.382 2°48.468 346.3 12.6 336 21.3
2011-03-21 08:44:55 51°23.398 2°48.455 345.6 12.7 334 21.5
2011-03-21 08:45:00 51°23.414 2°48.443 344.9 12.7 334 21.6
2011-03-21 08:45:05 51°23.429 2°48.43 344.1 12.7 332 21.4
2011-03-21 08:45:10 51°23.445 2°48.416 342.5 12.8 331 21.4
2011-03-21 08:45:15 51°23.46 2°48.401 341.2 12.8 330 21.3
2011-03-21 08:45:20 51°23.475 2°48.387 340.3 12.9 329 20.9
2011-03-21 08:45:25 51°23.491 2°48.372 339.7 12.9 329 20.5
2011-03-21 08:45:30 51°23.506 2°48.356 339.3 12.9 328 19.6
2011-03-21 08:45:34 51°23.518 2°48.344 339 12.9 328 17.9
2011-03-21 08:45:40 51°23.536 2°48.326 338.6 12.9 328 19.3
2011-03-21 08:45:45 51°23.551 2°48.311 339 12.9 329 20.2
2011-03-21 08:45:50 51°23.567 2°48.296 339.1 12.9 329 21
2011-03-21 08:45:54 51°23.579 2°48.285 339.6 12.8 330 21.1
2011-03-21 08:46:00 51°23.597 2°48.267 339.8 12.8 329 20.8
2011-03-21 08:46:05 51°23.613 2°48.253 340 12.8 330 21
2011-03-21 08:46:10 51°23.628 2°48.239 340.5 12.8 330 21
2011-03-21 08:46:14 51°23.64 2°48.227 340.5 12.8 329 21.1
2011-03-21 08:46:20 51°23.658 2°48.209 340 12.8 329 21.1
2011-03-21 08:46:25 51°23.673 2°48.195 339.6 12.8 328 20.8
2011-03-21 08:46:30 51°23.688 2°48.18 339.3 12.7 328 21.1
2011-03-21 08:46:35 51°23.703 2°48.165 339.1 12.7 328 21.1
2011-03-21 08:46:40 51°23.718 2°48.15 339 12.7 328 21.4
2011-03-21 08:46:45 51°23.733 2°48.136 339.3 12.7 329 21.4
2011-03-21 08:46:50 51°23.748 2°48.121 339.6 12.7 328 21.3
2011-03-21 08:46:55 51°23.763 2°48.106 339.6 12.7 328 20.1
2011-03-21 08:47:00 51°23.778 2°48.09 338.3 12.7 325 19
2011-03-21 08:47:05 51°23.792 2°48.073 336.8 12.7 325 17.8
2011-03-21 08:47:10 51°23.806 2°48.057 335.5 12.8 324 18
2011-03-21 08:47:15 51°23.82 2°48.039 334.6 12.8 323 18.1
2011-03-21 08:47:20 51°23.835 2°48.023 334.4 12.8 324 17.8
2011-03-21 08:47:25 51°23.849 2°48.006 334.4 12.8 324 19.3
2011-03-21 08:47:30 51°23.864 2°47.99 334.9 12.7 325 20.5
2011-03-21 08:47:34 51°23.875 2°47.977 334.9 12.7 324 20.9
2011-03-21 08:47:40 51°23.892 2°47.958 334.7 12.7 325 20.5
2011-03-21 08:47:45 51°23.907 2°47.942 335.1 12.7 325 19.1
2011-03-21 08:47:50 51°23.921 2°47.925 335.3 12.7 325 20
2011-03-21 08:47:54 51°23.933 2°47.912 335 12.7 325 20.7
2011-03-21 08:48:00 51°23.95 2°47.892 334.7 12.7 324 21
2011-03-21 08:48:05 51°23.964 2°47.875 334 12.8 323 21.3
2011-03-21 08:48:10 51°23.978 2°47.858 333.5 12.8 323 22.3
2011-03-21 08:48:14 51°23.989 2°47.845 333.6 12.8 324 23
2011-03-21 08:48:20 51°24.007 2°47.825 334.3 12.8 325 22.4
2011-03-21 08:48:25 51°24.021 2°47.808 334.6 12.8 324 22
2011-03-21 08:48:30 51°24.035 2°47.792 334.2 12.7 324 21.6
2011-03-21 08:48:34 51°24.047 2°47.778 334 12.8 323 21.7
2011-03-21 08:48:40 51°24.064 2°47.759 334.1 12.7 325 22.1
2011-03-21 08:48:45 51°24.078 2°47.742 334.6 12.7 324 23.4
2011-03-21 08:48:50 51°24.093 2°47.726 335 12.7 326 23.5
2011-03-21 08:48:55 51°24.107 2°47.71 335.1 12.7 325 24.1
2011-03-21 08:49:00 51°24.122 2°47.694 335.4 12.7 326 24.8
2011-03-21 08:49:05 51°24.137 2°47.678 335.6 12.7 325 24.6
2011-03-21 08:49:10 51°24.151 2°47.662 335.5 12.7 325 24.7
2011-03-21 08:49:15 51°24.166 2°47.646 335.3 12.7 325 24.9
2011-03-21 08:49:20 51°24.18 2°47.63 335.3 12.8 325 25.2
2011-03-21 08:49:25 51°24.195 2°47.613 334.9 12.7 325 25
2011-03-21 08:49:30 51°24.209 2°47.597 334.6 12.8 324 25.1
2011-03-21 08:49:35 51°24.223 2°47.58 333.9 12.8 324 25.4
2011-03-21 08:49:40 51°24.238 2°47.564 333.9 12.8 325 25.4
2011-03-21 08:49:45 51°24.252 2°47.548 334 12.8 325 25.4
2011-03-21 08:49:50 51°24.267 2°47.531 334.7 12.8 325 25.7
2011-03-21 08:49:55 51°24.281 2°47.515 334.9 12.8 324 25.1
2011-03-21 08:50:00 51°24.295 2°47.498 334.7 12.8 324 25.1
2011-03-21 08:50:05 51°24.31 2°47.481 334.7 12.8 324 24.5
2011-03-21 08:50:10 51°24.324 2°47.464 334.4 12.8 324 25
2011-03-21 08:50:14 51°24.336 2°47.451 334.5 12.8 323 25.4
2011-03-21 08:50:20 51°24.353 2°47.43 334.2 12.8 323 25.7
2011-03-21 08:50:25 51°24.367 2°47.413 334 12.8 323 26
2011-03-21 08:50:30 51°24.381 2°47.396 334 12.8 323 26.5
2011-03-21 08:50:34 51°24.392 2°47.382 334.2 12.8 323 27.3
2011-03-21 08:50:40 51°24.41 2°47.363 334.7 12.8 324 27.8
2011-03-21 08:50:45 51°24.424 2°47.346 335.2 12.8 324 28.3
2011-03-21 08:50:50 51°24.439 2°47.329 335.5 12.9 324 28.4
2011-03-21 08:50:54 51°24.45 2°47.316 335.5 12.9 324 28.8
2011-03-21 08:51:00 51°24.468 2°47.295 335.4 12.9 324 29.4
2011-03-21 08:51:05 51°24.482 2°47.278 335.1 12.9 323 29.9
2011-03-21 08:51:10 51°24.496 2°47.261 334.9 13 323 30.3
2011-03-21 08:51:15 51°24.511 2°47.243 334.6 13 322 30.4
2011-03-21 08:51:20 51°24.525 2°47.225 334.3 13 322 30.5
2011-03-21 08:51:25 51°24.539 2°47.207 334.1 13.1 321 30.3
2011-03-21 08:51:30 51°24.553 2°47.189 334 13.1 322 29.8
2011-03-21 08:51:35 51°24.567 2°47.171 334.1 13 322 30
2011-03-21 08:51:40 51°24.582 2°47.154 334.7 13 323 30.5
2011-03-21 08:51:45 51°24.596 2°47.136 334.8 13 323 30.6
2011-03-21 08:51:50 51°24.611 2°47.119 335.3 13 323 30.9
2011-03-21 08:51:54 51°24.623 2°47.106 335.7 13 323 30.6
2011-03-21 08:52:00 51°24.64 2°47.085 335.8 13.1 323 30.6
2011-03-21 08:52:05 51°24.654 2°47.067 335.9 13.1 323 30.3
2011-03-21 08:52:10 51°24.669 2°47.05 335.6 13.1 323 29.9
2011-03-21 08:52:14 51°24.68 2°47.036 335.6 13.1 322 29.3
2011-03-21 08:52:20 51°24.698 2°47.014 335.1 13.1 322 29.5
2011-03-21 08:52:25 51°24.712 2°46.996 334.8 13.1 322 29.4
2011-03-21 08:52:30 51°24.726 2°46.978 334.7 13.1 322 28.3
2011-03-21 08:52:34 51°24.738 2°46.964 334.7 13.1 322 28.1
2011-03-21 08:52:40 51°24.755 2°46.942 335 13.1 322 28.2
2011-03-21 08:52:45 51°24.769 2°46.925 335.4 13.1 323 28.2
2011-03-21 08:52:50 51°24.784 2°46.907 335.6 13.1 323 27.5
2011-03-21 08:52:54 51°24.795 2°46.893 335.6 13.1 323 27
2011-03-21 08:53:00 51°24.813 2°46.872 335.6 13.1 323 26.4
2011-03-21 08:53:05 51°24.827 2°46.854 335.5 13.1 323 26.2
2011-03-21 08:53:10 51°24.842 2°46.837 335.4 13.1 323 26.3
2011-03-21 08:53:15 51°24.856 2°46.82 335.6 13.1 323 26.4
2011-03-21 08:53:20 51°24.87 2°46.802 335.8 13 323 26.1
2011-03-21 08:53:25 51°24.885 2°46.785 336.1 13 323 25.6
2011-03-21 08:53:30 51°24.9 2°46.768 336.1 13 323 24.9
2011-03-21 08:53:35 51°24.914 2°46.75 336.1 13 323 24.3
2011-03-21 08:53:40 51°24.928 2°46.733 335.7 13 323 24.4
2011-03-21 08:53:45 51°24.942 2°46.715 335.6 13 323 24.2
2011-03-21 08:53:50 51°24.957 2°46.698 335.6 13 323 24.1
2011-03-21 08:53:55 51°24.971 2°46.68 335.4 13 322 24.2
2011-03-21 08:54:00 51°24.985 2°46.663 335.2 13 323 24.4
2011-03-21 08:54:05 51°25 2°46.646 335.4 13 323 24.4
2011-03-21 08:54:10 51°25.014 2°46.628 335.4 13 323 24.1
2011-03-21 08:54:15 51°25.029 2°46.611 335.4 13 323 24.2
2011-03-21 08:54:20 51°25.043 2°46.593 335.1 13 322 24.6
2011-03-21 08:54:25 51°25.057 2°46.575 334.9 13 322 24.1
2011-03-21 08:54:30 51°25.071 2°46.558 334.9 13 322 24.4
2011-03-21 08:54:34 51°25.083 2°46.544 334.9 13 323 24.4
2011-03-21 08:54:40 51°25.1 2°46.523 335.6 13 323 24.3
2011-03-21 08:54:45 51°25.114 2°46.506 335.6 13 323 24.3
2011-03-21 08:54:50 51°25.129 2°46.489 335.6 13 323 24.7
2011-03-21 08:54:54 51°25.14 2°46.475 335.6 13 323 24.5
2011-03-21 08:55:00 51°25.158 2°46.454 335.6 13 323 24.6
2011-03-21 08:55:05 51°25.172 2°46.437 335.4 13 323 24.4
2011-03-21 08:55:10 51°25.186 2°46.419 335.4 13 323 23.8
2011-03-21 08:55:14 51°25.198 2°46.405 335.2 13 323 22.7
2011-03-21 08:55:20 51°25.215 2°46.384 335.1 13 323 23.2
2011-03-21 08:55:25 51°25.23 2°46.366 334.8 13.1 322 23.9
2011-03-21 08:55:30 51°25.244 2°46.35 335.4 13 324 24.4
2011-03-21 08:55:35 51°25.259 2°46.334 336.9 12.9 326 24.5
2011-03-21 08:55:40 51°25.274 2°46.319 338.7 12.8 328 24.4
2011-03-21 08:55:45 51°25.29 2°46.306 341.2 12.7 331 24.9
2011-03-21 08:55:50 51°25.305 2°46.293 343.4 12.6 333 24.9
2011-03-21 08:55:55 51°25.321 2°46.281 344.6 12.6 334 24.9
2011-03-21 08:56:00 51°25.337 2°46.27 346 12.5 335 23.6
2011-03-21 08:56:05 51°25.352 2°46.258 346.3 12.5 335 23.8
2011-03-21 08:56:10 51°25.368 2°46.246 346.7 12.5 336 24.8
2011-03-21 08:56:15 51°25.384 2°46.235 346.7 12.5 335 23.7
2011-03-21 08:56:20 51°25.399 2°46.223 346.8 12.4 335 24.3
2011-03-21 08:56:25 51°25.415 2°46.212 346.8 12.4 335 24.8
2011-03-21 08:56:30 51°25.431 2°46.2 346.8 12.4 335 25
2011-03-21 08:56:35 51°25.446 2°46.188 346.3 12.4 335 24.9
2011-03-21 08:56:40 51°25.462 2°46.176 345.4 12.5 333 24.3
2011-03-21 08:56:45 51°25.477 2°46.163 344.5 12.5 333 23.2
2011-03-21 08:56:50 51°25.492 2°46.15 343.8 12.5 331 22.7
2011-03-21 08:56:54 51°25.505 2°46.139 342.8 12.5 332 23.3
2011-03-21 08:57:00 51°25.523 2°46.123 342.7 12.5 331 24
2011-03-21 08:57:05 51°25.538 2°46.11 342.7 12.5 332 24.5
2011-03-21 08:57:10 51°25.553 2°46.098 343.4 12.4 333 23.9
2011-03-21 08:57:14 51°25.566 2°46.088 343.9 12.4 333 23.5
2011-03-21 08:57:20 51°25.584 2°46.072 344.1 12.4 333 23.1
2011-03-21 08:57:25 51°25.599 2°46.06 344 12.4 333 22.7
2011-03-21 08:57:30 51°25.614 2°46.047 343.9 12.4 332 23.4
2011-03-21 08:57:34 51°25.627 2°46.036 343.4 12.4 332 23.7
2011-03-21 08:57:40 51°25.645 2°46.022 343.4 12.4 333 23.6
2011-03-21 08:57:45 51°25.66 2°46.008 343.5 12.4 332 22.9
2011-03-21 08:57:50 51°25.675 2°45.996 343.4 12.4 333 23.1
2011-03-21 08:57:55 51°25.69 2°45.982 343.2 12.4 331 23.7
2011-03-21 08:58:00 51°25.706 2°45.97 342.9 12.3 333 23.7
2011-03-21 08:58:05 51°25.721 2°45.957 343.4 12.4 332 24.1
2011-03-21 08:58:10 51°25.736 2°45.946 344.2 12.3 335 24.1
2011-03-21 08:58:15 51°25.752 2°45.934 344.9 12.3 334 24.2
2011-03-21 08:58:20 51°25.767 2°45.922 345.1 12.3 335 24.4
2011-03-21 08:58:25 51°25.782 2°45.911 345.7 12.3 335 24.7
2011-03-21 08:58:30 51°25.798 2°45.9 346.1 12.2 336 24.5
2011-03-21 08:58:34 51°25.81 2°45.891 347 12.2 336 23.7
2011-03-21 08:58:40 51°25.829 2°45.878 346.9 12.3 336 24.7
2011-03-21 08:58:45 51°25.844 2°45.866 346.8 12.3 336 25.5
2011-03-21 08:58:50 51°25.86 2°45.855 346.6 12.3 336 25.3
2011-03-21 08:58:54 51°25.872 2°45.846 346.6 12.3 336 25.5
2011-03-21 08:59:00 51°25.891 2°45.833 346.4 12.3 335 25.4
2011-03-21 08:59:05 51°25.907 2°45.822 346.3 12.3 336 25.7
2011-03-21 08:59:10 51°25.922 2°45.81 346 12.3 335 25.1
2011-03-21 08:59:14 51°25.935 2°45.801 345.9 12.3 335 25
2011-03-21 08:59:20 51°25.953 2°45.787 346.1 12.3 335 23.7
2011-03-21 08:59:25 51°25.968 2°45.776 346.3 12.3 336 23.5
2011-03-21 08:59:30 51°25.984 2°45.765 346.8 12.2 335 24.7
2011-03-21 08:59:34 51°25.996 2°45.755 346.5 12.3 335 24.9
2011-03-21 08:59:40 51°26.015 2°45.742 346.4 12.3 335 25.3
2011-03-21 08:59:45 51°26.03 2°45.73 346.6 12.2 336 25.7
2011-03-21 08:59:50 51°26.045 2°45.719 346.9 12.2 335 26.3
2011-03-21 08:59:55 51°26.061 2°45.708 346.9 12.2 336 26.4
2011-03-21 09:00:00 51°26.076 2°45.697 347 12.3 336 26.5
2011-03-21 09:00:05 51°26.092 2°45.686 347 12.2 336 25
2011-03-21 09:00:10 51°26.107 2°45.674 347 12.3 335 25.1
2011-03-21 09:00:15 51°26.123 2°45.663 346.5 12.3 335 25.3
2011-03-21 09:00:20 51°26.138 2°45.651 346.1 12.3 334 25
2011-03-21 09:00:25 51°26.154 2°45.639 345.7 12.3 334 25.7
2011-03-21 09:00:30 51°26.169 2°45.627 345.6 12.3 333 26
2011-03-21 09:00:35 51°26.184 2°45.615 345.6 12.2 335 26.2
2011-03-21 09:00:40 51°26.199 2°45.603 346 12.3 334 26.1
2011-03-21 09:00:45 51°26.215 2°45.592 346.3 12.2 335 25.8
2011-03-21 09:00:50 51°26.23 2°45.58 346.8 12.2 335 24.8
2011-03-21 09:00:54 51°26.243 2°45.571 346.7 12.2 335 25.1
2011-03-21 09:01:00 51°26.261 2°45.557 346.3 12.3 334 26.4
2011-03-21 09:01:05 51°26.276 2°45.545 346.3 12.2 335 26.9
2011-03-21 09:01:10 51°26.292 2°45.533 346.3 12.3 334 27.2
2011-03-21 09:01:14 51°26.304 2°45.524 346.3 12.3 335 26.8
2011-03-21 09:01:20 51°26.322 2°45.51 346.3 12.3 334 26
2011-03-21 09:01:25 51°26.338 2°45.498 346.3 12.3 334 26.3
2011-03-21 09:01:30 51°26.353 2°45.486 346.3 12.3 334 26.7
2011-03-21 09:01:34 51°26.365 2°45.476 346.3 12.3 334 26.9
2011-03-21 09:01:40 51°26.384 2°45.462 346.4 12.3 334 27.2
2011-03-21 09:01:45 51°26.399 2°45.45 346.7 12.3 335 27.1
2011-03-21 09:01:50 51°26.415 2°45.438 346.9 12.3 334 27.4
2011-03-21 09:01:54 51°26.427 2°45.429 346.7 12.3 334 28.1
2011-03-21 09:02:00 51°26.445 2°45.414 346.7 12.4 334 27.9
2011-03-21 09:02:05 51°26.461 2°45.402 346.4 12.4 334 27.8
2011-03-21 09:02:10 51°26.476 2°45.39 346.4 12.4 334 28.1
2011-03-21 09:02:15 51°26.492 2°45.378 346.3 12.4 334 28
2011-03-21 09:02:20 51°26.507 2°45.366 346.3 12.4 334 27.6
2011-03-21 09:02:25 51°26.523 2°45.354 346.6 12.4 334 27.9
2011-03-21 09:02:30 51°26.539 2°45.342 347 12.4 335 27.8
2011-03-21 09:02:35 51°26.554 2°45.33 347.6 12.4 335 27.6
2011-03-21 09:02:40 51°26.57 2°45.318 347.5 12.4 335 27.6
2011-03-21 09:02:45 51°26.585 2°45.306 347.3 12.5 334 28.1
2011-03-21 09:02:50 51°26.601 2°45.294 347 12.5 334 27.9
2011-03-21 09:02:55 51°26.617 2°45.282 346.8 12.5 334 28
2011-03-21 09:03:00 51°26.632 2°45.27 346.6 12.5 334 27.8
2011-03-21 09:03:05 51°26.648 2°45.258 346.5 12.5 334 27.8
2011-03-21 09:03:10 51°26.664 2°45.246 346.4 12.5 334 27.5
2011-03-21 09:03:14 51°26.676 2°45.236 346.5 12.5 334 27.6
2011-03-21 09:03:20 51°26.695 2°45.222 346.7 12.5 335 27.5
2011-03-21 09:03:25 51°26.71 2°45.21 347 12.5 335 27.4
2011-03-21 09:03:30 51°26.726 2°45.198 347.1 12.5 335 27.5
2011-03-21 09:03:34 51°26.739 2°45.189 347.4 12.5 335 27.7
2011-03-21 09:03:40 51°26.758 2°45.175 347.4 12.5 335 27.9
2011-03-21 09:03:45 51°26.773 2°45.163 347.4 12.5 335 27.5
2011-03-21 09:03:50 51°26.789 2°45.151 347.4 12.5 335 27.5
2011-03-21 09:03:54 51°26.802 2°45.142 347.3 12.5 335 27.4
2011-03-21 09:04:00 51°26.821 2°45.128 347.3 12.5 335 27.5
2011-03-21 09:04:05 51°26.836 2°45.117 347.3 12.5 336 27.8
2011-03-21 09:04:10 51°26.852 2°45.105 347.4 12.5 335 28
2011-03-21 09:04:14 51°26.865 2°45.096 347.3 12.5 335 28
2011-03-21 09:04:20 51°26.884 2°45.081 346.7 12.5 334 28.3
2011-03-21 09:04:25 51°26.899 2°45.069 346.2 12.6 334 28.1
2011-03-21 09:04:30 51°26.915 2°45.057 346 12.6 334 28.4
2011-03-21 09:04:35 51°26.931 2°45.044 346 12.5 334 28.2
2011-03-21 09:04:40 51°26.946 2°45.033 346.2 12.5 335 27.9
2011-03-21 09:04:45 51°26.962 2°45.021 346.3 12.5 335 27.8
2011-03-21 09:04:50 51°26.978 2°45.009 346.8 12.5 335 28.1
2011-03-21 09:04:55 51°26.994 2°44.997 346.9 12.5 335 28.1
2011-03-21 09:05:00 51°27.009 2°44.986 346.9 12.5 335 28.1
2011-03-21 09:05:05 51°27.025 2°44.974 347 12.5 336 28.6
2011-03-21 09:05:10 51°27.041 2°44.964 347.4 12.5 336 28.8
2011-03-21 09:05:15 51°27.057 2°44.953 348.2 12.4 337 28.7
2011-03-21 09:05:20 51°27.073 2°44.942 348.7 12.4 338 28.7
2011-03-21 09:05:25 51°27.089 2°44.932 348.9 12.4 338 28.7
2011-03-21 09:05:30 51°27.105 2°44.921 349.2 12.4 338 28.6
2011-03-21 09:05:34 51°27.117 2°44.913 349 12.4 337 28.4
2011-03-21 09:05:40 51°27.136 2°44.9 348.8 12.4 337 27.8
2011-03-21 09:05:45 51°27.152 2°44.888 348.5 12.4 336 26.6
2011-03-21 09:05:50 51°27.168 2°44.877 348.3 12.4 337 25.9
2011-03-21 09:05:54 51°27.18 2°44.868 347.9 12.5 335 25.4
2011-03-21 09:06:00 51°27.199 2°44.854 347.5 12.4 336 25
2011-03-21 09:06:05 51°27.215 2°44.843 347.4 12.5 335 25.2
2011-03-21 09:06:10 51°27.231 2°44.832 347.6 12.4 336 24.7
2011-03-21 09:06:14 51°27.243 2°44.822 347.7 12.4 335 24.7
2011-03-21 09:06:20 51°27.262 2°44.809 348.1 12.4 336 24.7
2011-03-21 09:06:25 51°27.278 2°44.798 348.1 12.4 336 25
2011-03-21 09:06:30 51°27.294 2°44.787 348.5 12.4 337 25.3
2011-03-21 09:06:34 51°27.306 2°44.778 348.6 12.4 336 25.9
2011-03-21 09:06:40 51°27.325 2°44.765 348.5 12.4 337 25.7
2011-03-21 09:06:45 51°27.341 2°44.754 348.4 12.4 336 26.2
2011-03-21 09:06:50 51°27.357 2°44.744 348.2 12.3 337 26.6
2011-03-21 09:06:54 51°27.369 2°44.735 348.2 12.4 337 26.6
2011-03-21 09:07:00 51°27.388 2°44.722 348.4 12.4 337 26.8
2011-03-21 09:07:05 51°27.404 2°44.711 348.5 12.4 337 27
2011-03-21 09:07:10 51°27.42 2°44.701 348.5 12.4 337 26.7
2011-03-21 09:07:15 51°27.436 2°44.69 348.5 12.4 337 26.8
2011-03-21 09:07:20 51°27.451 2°44.679 348.5 12.4 338 27.2
2011-03-21 09:07:25 51°27.467 2°44.669 348.6 12.4 337 27.2
2011-03-21 09:07:30 51°27.483 2°44.658 348.5 12.4 338 27.2
2011-03-21 09:07:34 51°27.496 2°44.649 348.3 12.4 336 27.1
2011-03-21 09:07:40 51°27.515 2°44.636 347.8 12.4 336 26.5
2011-03-21 09:07:45 51°27.53 2°44.624 347.3 12.5 335 27.1
2011-03-21 09:07:50 51°27.546 2°44.612 346.7 12.5 335 26.9
2011-03-21 09:07:54 51°27.558 2°44.603 346.2 12.5 334 27.3
2011-03-21 09:08:00 51°27.577 2°44.588 345.5 12.5 333 27.3